createdAt,value
2018-08-17T00:00:07.687Z,70.30
2018-08-17T00:02:36.229Z,72.70
2018-08-17T00:05:04.598Z,72.80
2018-08-17T00:07:32.995Z,71.00
2018-08-17T00:10:01.490Z,72.90
2018-08-17T00:12:29.879Z,72.00
2018-08-17T00:14:58.364Z,72.50
2018-08-17T00:17:26.811Z,71.90
2018-08-17T00:19:55.346Z,71.90
2018-08-17T00:22:23.737Z,70.80
2018-08-17T00:24:52.278Z,70.80
2018-08-17T00:27:20.783Z,70.90
2018-08-17T00:29:49.451Z,71.50
2018-08-17T00:32:18.419Z,70.30
2018-08-17T00:34:46.822Z,71.30
2018-08-17T00:37:15.217Z,70.70
2018-08-17T00:39:43.613Z,70.70
2018-08-17T00:42:12.037Z,70.90
2018-08-17T00:44:40.451Z,70.60
2018-08-17T00:47:08.949Z,70.60
2018-08-17T00:49:37.325Z,71.20
2018-08-17T00:52:05.746Z,71.00
2018-08-17T00:54:34.174Z,70.60
2018-08-17T00:57:02.645Z,70.20
2018-08-17T00:59:31.205Z,70.40
2018-08-17T01:01:59.599Z,70.80
2018-08-17T01:04:27.958Z,70.70
2018-08-17T01:06:56.280Z,70.90
2018-08-17T01:09:24.704Z,70.70
2018-08-17T01:11:53.335Z,70.90
2018-08-17T01:14:21.811Z,71.30
2018-08-17T01:16:50.315Z,71.10
2018-08-17T01:19:18.702Z,71.00
2018-08-17T01:21:47.075Z,70.20
2018-08-17T01:24:15.499Z,70.00
2018-08-17T01:26:43.940Z,70.10
2018-08-17T01:29:12.398Z,69.60
2018-08-17T01:31:40.830Z,69.40
2018-08-17T01:34:09.263Z,69.70
2018-08-17T01:36:37.602Z,69.50
2018-08-17T01:39:07.781Z,69.90
2018-08-17T01:41:36.312Z,70.10
2018-08-17T01:44:04.691Z,70.30
2018-08-17T01:46:33.131Z,70.70
2018-08-17T01:49:01.672Z,70.80
2018-08-17T01:51:30.055Z,70.70
2018-08-17T01:53:58.454Z,70.80
2018-08-17T01:56:26.894Z,70.70
2018-08-17T01:58:55.320Z,71.00
2018-08-17T02:01:23.747Z,71.00
2018-08-17T02:03:52.437Z,71.40
2018-08-17T02:06:20.962Z,71.30
2018-08-17T02:08:49.337Z,71.60
2018-08-17T02:11:17.819Z,72.10
2018-08-17T02:13:46.294Z,71.60
2018-08-17T02:16:14.645Z,71.80
2018-08-17T02:18:43.127Z,71.50
2018-08-17T02:21:11.516Z,71.60
2018-08-17T02:23:39.937Z,71.60
2018-08-17T02:26:08.394Z,71.80
2018-08-17T02:28:36.860Z,71.70
2018-08-17T02:31:05.207Z,71.80
2018-08-17T02:33:33.735Z,71.70
2018-08-17T02:36:02.169Z,71.70
2018-08-17T02:38:30.526Z,72.20
2018-08-17T02:40:58.957Z,72.10
2018-08-17T02:43:27.354Z,71.90
2018-08-17T02:45:55.792Z,72.00
2018-08-17T02:48:24.240Z,72.20
2018-08-17T02:50:52.970Z,72.30
2018-08-17T02:53:21.434Z,72.50
2018-08-17T02:55:49.882Z,72.30
2018-08-17T02:58:18.287Z,72.70
2018-08-17T03:00:46.834Z,73.70
2018-08-17T03:03:15.490Z,73.10
2018-08-17T03:05:43.975Z,73.50
2018-08-17T03:08:12.400Z,73.70
2018-08-17T03:10:40.798Z,73.60
2018-08-17T03:13:09.313Z,74.30
2018-08-17T03:15:37.898Z,74.20
2018-08-17T03:18:06.286Z,74.00
2018-08-17T03:20:34.646Z,74.40
2018-08-17T03:23:03.361Z,74.40
2018-08-17T03:25:31.831Z,74.20
2018-08-17T03:28:00.244Z,74.40
2018-08-17T03:30:28.786Z,74.60
2018-08-17T03:32:57.147Z,74.70
2018-08-17T03:35:25.608Z,74.70
2018-08-17T03:37:54.026Z,74.70
2018-08-17T03:40:22.436Z,75.00
2018-08-17T03:42:51.013Z,74.70
2018-08-17T03:45:19.406Z,74.80
2018-08-17T03:47:47.845Z,75.00
2018-08-17T03:50:16.266Z,74.70
2018-08-17T03:52:44.663Z,75.20
2018-08-17T03:55:13.116Z,75.00
2018-08-17T03:57:41.486Z,74.80
2018-08-17T04:00:09.919Z,74.70
2018-08-17T04:02:38.253Z,75.20
2018-08-17T04:05:06.658Z,75.30
2018-08-17T04:07:35.071Z,75.60
2018-08-17T04:10:03.458Z,75.30
2018-08-17T04:12:32.060Z,75.40
2018-08-17T04:15:00.635Z,75.50
2018-08-17T04:17:29.069Z,75.40
2018-08-17T04:19:57.409Z,75.10
2018-08-17T04:22:25.776Z,75.30
2018-08-17T04:24:54.279Z,75.60
2018-08-17T04:27:22.839Z,76.10
2018-08-17T04:29:51.178Z,75.50
2018-08-17T04:32:19.700Z,75.40
2018-08-17T04:34:48.084Z,75.10
2018-08-17T04:37:16.551Z,75.30
2018-08-17T04:39:45.148Z,74.70
2018-08-17T04:42:13.546Z,74.40
2018-08-17T04:44:41.919Z,74.60
2018-08-17T04:47:10.312Z,74.40
2018-08-17T04:49:38.666Z,74.20
2018-08-17T04:52:07.122Z,74.00
2018-08-17T04:54:35.473Z,74.20
2018-08-17T04:57:03.854Z,74.30
2018-08-17T04:59:32.520Z,73.70
2018-08-17T05:02:00.952Z,73.40
2018-08-17T05:04:29.330Z,73.40
2018-08-17T05:06:57.728Z,73.20
2018-08-17T05:09:26.096Z,73.10
2018-08-17T05:11:54.546Z,73.10
2018-08-17T05:14:22.957Z,73.80
2018-08-17T05:16:51.607Z,72.90
2018-08-17T05:19:20.551Z,72.80
2018-08-17T05:21:48.935Z,72.70
2018-08-17T05:24:17.615Z,72.90
2018-08-17T05:26:45.990Z,72.10
2018-08-17T05:29:14.423Z,71.70
2018-08-17T05:31:42.883Z,71.70
2018-08-17T05:34:11.508Z,71.50
2018-08-17T05:36:40.114Z,71.40
2018-08-17T05:39:09.247Z,70.80
2018-08-17T05:41:37.800Z,71.40
2018-08-17T05:44:06.222Z,70.30
2018-08-17T05:46:34.582Z,70.30
2018-08-17T05:49:02.967Z,70.40
2018-08-17T05:51:31.370Z,69.60
2018-08-17T05:53:59.774Z,69.60
2018-08-17T05:56:28.334Z,69.20
2018-08-17T05:58:56.784Z,69.30
2018-08-17T06:01:25.353Z,69.10
2018-08-17T06:03:53.852Z,68.50
2018-08-17T06:06:22.343Z,69.00
2018-08-17T06:08:50.726Z,67.60
2018-08-17T06:11:20.124Z,67.80
2018-08-17T06:13:48.469Z,68.20
2018-08-17T06:16:16.865Z,67.90
2018-08-17T06:18:45.433Z,67.40
2018-08-17T06:21:13.936Z,66.80
2018-08-17T06:23:42.426Z,66.80
2018-08-17T06:26:10.884Z,65.90
2018-08-17T06:28:39.364Z,65.90
2018-08-17T06:31:07.836Z,66.20
2018-08-17T06:33:36.425Z,65.70
2018-08-17T06:36:04.943Z,66.30
2018-08-17T06:38:33.332Z,66.00
2018-08-17T06:41:01.765Z,66.00
2018-08-17T06:43:30.352Z,65.30
2018-08-17T06:45:58.783Z,64.60
2018-08-17T06:48:27.138Z,64.50
2018-08-17T06:50:55.604Z,64.80
2018-08-17T06:53:23.957Z,63.90
2018-08-17T06:55:52.336Z,65.20
2018-08-17T06:58:20.934Z,64.20
2018-08-17T07:00:49.366Z,63.70
2018-08-17T07:03:17.873Z,63.30
2018-08-17T07:05:46.271Z,62.30
2018-08-17T07:08:14.628Z,63.10
2018-08-17T07:10:43.046Z,64.70
2018-08-17T07:13:11.618Z,62.10
2018-08-17T07:15:40.211Z,62.20
2018-08-17T07:18:09.055Z,63.30
2018-08-17T07:20:37.406Z,63.00
2018-08-17T07:23:06.051Z,62.20
2018-08-17T07:25:34.555Z,62.30
2018-08-17T07:28:03.018Z,61.50
2018-08-17T07:30:31.505Z,61.40
2018-08-17T07:32:59.887Z,62.10
2018-08-17T07:35:28.467Z,62.90
2018-08-17T07:37:56.859Z,61.10
2018-08-17T07:40:25.335Z,61.40
2018-08-17T07:42:53.689Z,61.20
2018-08-17T07:45:22.055Z,62.40
2018-08-17T07:47:50.529Z,62.10
2018-08-17T07:50:20.505Z,61.30
2018-08-17T07:52:48.860Z,61.50
2018-08-17T07:55:17.237Z,60.60
2018-08-17T07:57:45.649Z,60.20
2018-08-17T08:00:14.423Z,60.70
2018-08-17T08:02:42.782Z,60.40
2018-08-17T08:05:12.090Z,61.10
2018-08-17T08:07:40.594Z,59.40
2018-08-17T08:10:09.894Z,59.30
2018-08-17T08:12:38.459Z,59.50
2018-08-17T08:15:07.329Z,59.10
2018-08-17T08:17:36.097Z,60.70
2018-08-17T08:20:15.888Z,62.40
2018-08-17T08:22:44.339Z,60.00
2018-08-17T08:25:12.847Z,58.90
2018-08-17T08:27:41.374Z,58.20
2018-08-17T08:30:09.906Z,60.30
2018-08-17T08:32:38.426Z,59.10
2018-08-17T08:35:07.577Z,60.10
2018-08-17T08:37:35.967Z,58.70
2018-08-17T08:40:04.790Z,58.10
2018-08-17T08:42:33.282Z,59.10
2018-08-17T08:45:01.753Z,59.60
2018-08-17T08:47:30.141Z,58.50
2018-08-17T08:49:58.687Z,58.90
2018-08-17T08:52:27.296Z,57.90
2018-08-17T08:54:55.677Z,60.20
2018-08-17T08:57:24.157Z,59.80
2018-08-17T08:59:52.592Z,58.30
2018-08-17T09:02:21.176Z,59.90
2018-08-17T09:04:49.547Z,60.00
2018-08-17T09:07:17.991Z,59.10
2018-08-17T09:09:46.371Z,58.30
2018-08-17T09:12:14.822Z,56.90
2018-08-17T09:14:43.275Z,56.20
2018-08-17T09:17:11.776Z,56.60
2018-08-17T09:19:40.167Z,56.60
2018-08-17T09:22:08.638Z,56.40
2018-08-17T09:24:37.225Z,56.30
2018-08-17T09:27:06.012Z,58.30
2018-08-17T09:29:34.450Z,57.00
2018-08-17T09:32:03.105Z,58.10
2018-08-17T09:34:31.555Z,58.00
2018-08-17T09:37:00.144Z,57.80
2018-08-17T09:39:28.621Z,58.00
2018-08-17T09:41:57.560Z,59.00
2018-08-17T09:44:26.172Z,59.80
2018-08-17T09:46:54.607Z,57.40
2018-08-17T09:49:23.092Z,56.20
2018-08-17T09:51:51.653Z,56.20
2018-08-17T09:54:20.042Z,55.50
2018-08-17T09:56:48.513Z,57.70
2018-08-17T09:59:16.927Z,57.50
2018-08-17T10:01:51.004Z,55.80
2018-08-17T10:04:24.781Z,56.20
2018-08-17T10:06:58.559Z,55.90
2018-08-17T10:09:32.343Z,53.70
2018-08-17T10:12:01.350Z,53.80
2018-08-17T10:14:29.894Z,55.90
2018-08-17T10:16:58.382Z,55.50
2018-08-17T10:19:27.698Z,53.10
2018-08-17T10:21:56.590Z,52.80
2018-08-17T10:24:25.181Z,52.40
2018-08-17T10:26:54.606Z,55.50
2018-08-17T10:29:23.458Z,52.00
2018-08-17T10:31:52.453Z,54.20
2018-08-17T10:34:21.339Z,51.80
2018-08-17T10:36:49.820Z,51.30
2018-08-17T10:39:18.397Z,52.20
2018-08-17T10:41:46.827Z,53.90
2018-08-17T10:44:15.293Z,52.80
2018-08-17T10:46:43.754Z,52.70
2018-08-17T10:49:12.250Z,51.80
2018-08-17T10:51:40.669Z,51.10
2018-08-17T10:54:09.069Z,51.50
2018-08-17T10:56:37.589Z,53.70
2018-08-17T10:59:06.012Z,51.90
2018-08-17T11:01:34.433Z,53.90
2018-08-17T11:04:02.878Z,53.20
2018-08-17T11:06:31.337Z,52.80
2018-08-17T11:08:59.725Z,54.20
2018-08-17T11:11:28.284Z,53.90
2018-08-17T11:13:56.830Z,53.20
2018-08-17T11:16:25.370Z,51.90
2018-08-17T11:18:53.791Z,51.40
2018-08-17T11:21:22.198Z,51.50
2018-08-17T11:23:51.200Z,51.00
2018-08-17T11:26:19.629Z,53.10
2018-08-17T11:28:48.011Z,52.20
2018-08-17T11:31:16.419Z,52.10
2018-08-17T11:33:44.778Z,51.20
2018-08-17T11:36:13.271Z,50.20
2018-08-17T11:38:41.695Z,52.20
2018-08-17T11:41:10.977Z,51.80
2018-08-17T11:43:39.389Z,50.60
2018-08-17T11:46:08.735Z,49.70
2018-08-17T11:48:38.242Z,51.40
2018-08-17T11:51:06.673Z,53.00
2018-08-17T11:53:35.174Z,52.00
2018-08-17T11:56:03.567Z,50.60
2018-08-17T11:58:32.091Z,51.10
2018-08-17T12:01:00.449Z,52.00
2018-08-17T12:03:29.795Z,48.90
2018-08-17T12:05:58.171Z,49.40
2018-08-17T12:08:26.598Z,48.90
2018-08-17T12:11:03.386Z,51.30
2018-08-17T12:13:32.069Z,48.10
2018-08-17T12:16:00.577Z,48.00
2018-08-17T12:18:28.979Z,48.50
2018-08-17T12:20:57.390Z,48.40
2018-08-17T12:23:25.924Z,49.10
2018-08-17T12:25:55.723Z,49.80
2018-08-17T12:28:24.945Z,49.40
2018-08-17T12:30:53.326Z,50.20
2018-08-17T12:33:21.868Z,50.10
2018-08-17T12:35:50.481Z,50.80
2018-08-17T12:38:19.194Z,49.70
2018-08-17T12:40:48.976Z,50.30
2018-08-17T12:43:19.710Z,49.70
2018-08-17T12:45:48.198Z,48.60
2018-08-17T12:48:17.138Z,49.20
2018-08-17T12:50:46.151Z,46.60
2018-08-17T12:53:14.654Z,47.00
2018-08-17T12:55:43.467Z,45.90
2018-08-17T12:58:12.511Z,47.80
2018-08-17T13:00:40.889Z,47.60
2018-08-17T13:03:09.408Z,47.50
2018-08-17T13:05:37.977Z,47.50
2018-08-17T13:08:07.134Z,47.00
2018-08-17T13:10:35.646Z,47.20
2018-08-17T13:13:06.005Z,46.30
2018-08-17T13:15:34.936Z,44.60
2018-08-17T13:18:09.904Z,48.40
2018-08-17T13:20:38.445Z,48.50
2018-08-17T13:23:06.972Z,47.80
2018-08-17T13:25:35.358Z,48.50
2018-08-17T13:28:04.272Z,48.40
2018-08-17T13:30:32.698Z,49.20
2018-08-17T13:33:01.136Z,49.40
2018-08-17T13:35:29.578Z,48.30
2018-08-17T13:37:57.964Z,46.40
2018-08-17T13:40:26.373Z,45.40
2018-08-17T13:42:54.771Z,45.50
2018-08-17T13:45:23.304Z,44.20
2018-08-17T13:47:51.816Z,45.70
2018-08-17T13:50:20.346Z,45.00
2018-08-17T13:52:48.714Z,44.80
2018-08-17T13:55:17.201Z,44.70
2018-08-17T13:57:45.501Z,44.50
2018-08-17T14:00:13.934Z,46.30
2018-08-17T14:02:42.499Z,43.30
2018-08-17T14:05:11.797Z,43.60
2018-08-17T14:07:40.200Z,42.80
2018-08-17T14:10:10.059Z,46.50
2018-08-17T14:12:40.114Z,44.60
2018-08-17T14:15:09.813Z,43.20
2018-08-17T14:17:38.624Z,44.10
2018-08-17T14:20:09.849Z,43.40
2018-08-17T14:22:38.294Z,43.60
2018-08-17T14:25:09.560Z,43.00
2018-08-17T14:27:38.018Z,43.50
2018-08-17T14:30:10.452Z,44.30
2018-08-17T14:32:39.094Z,42.10
2018-08-17T14:35:07.589Z,43.30
2018-08-17T14:37:36.106Z,41.90
2018-08-17T14:40:04.868Z,42.50
2018-08-17T14:42:33.323Z,41.80
2018-08-17T14:45:01.810Z,44.80
2018-08-17T14:47:30.214Z,44.00
2018-08-17T14:49:58.771Z,42.60
2018-08-17T14:52:27.236Z,42.20
2018-08-17T14:54:55.657Z,44.10
2018-08-17T14:57:24.069Z,41.60
2018-08-17T14:59:53.773Z,40.50
2018-08-17T15:02:22.514Z,42.90
2018-08-17T15:04:51.084Z,40.90
2018-08-17T15:07:20.034Z,40.30
2018-08-17T15:09:48.780Z,41.40
2018-08-17T15:12:17.463Z,41.90
2018-08-17T15:14:45.851Z,41.00
2018-08-17T15:17:14.282Z,42.10
2018-08-17T15:19:42.908Z,43.00
2018-08-17T15:22:11.390Z,41.60
2018-08-17T15:24:39.973Z,41.40
2018-08-17T15:27:08.318Z,41.80
2018-08-17T15:29:36.722Z,42.00
2018-08-17T15:32:05.244Z,42.40
2018-08-17T15:34:33.594Z,41.40
2018-08-17T15:37:02.260Z,40.70
2018-08-17T15:39:30.690Z,40.80
2018-08-17T15:41:59.113Z,40.90
2018-08-17T15:44:27.671Z,40.10
2018-08-17T15:46:58.049Z,40.10
2018-08-17T15:49:31.918Z,40.80
2018-08-17T15:52:03.530Z,41.00
2018-08-17T15:54:32.775Z,41.60
2018-08-17T15:57:01.543Z,41.60
2018-08-17T15:59:30.288Z,41.50
2018-08-17T16:01:58.872Z,43.30
2018-08-17T16:04:27.305Z,46.00
2018-08-17T16:06:55.750Z,43.30
2018-08-17T16:09:24.243Z,43.80
2018-08-17T16:11:52.655Z,42.50
2018-08-17T16:14:21.121Z,41.90
2018-08-17T16:16:49.511Z,42.90
2018-08-17T16:19:17.873Z,42.40
2018-08-17T16:21:46.282Z,42.50
2018-08-17T16:24:19.786Z,42.80
2018-08-17T16:26:49.259Z,42.70
2018-08-17T16:29:18.633Z,43.10
2018-08-17T16:31:47.046Z,43.90
2018-08-17T16:34:15.443Z,43.20
2018-08-17T16:36:43.917Z,44.20
2018-08-17T16:39:14.718Z,43.30
2018-08-17T16:41:43.245Z,43.40
2018-08-17T16:44:12.141Z,43.50
2018-08-17T16:46:41.710Z,43.60
2018-08-17T16:49:10.198Z,43.40
2018-08-17T16:51:39.118Z,43.80
2018-08-17T16:54:10.136Z,44.00
2018-08-17T16:56:39.525Z,44.20
2018-08-17T16:59:10.059Z,44.10
2018-08-17T17:01:38.611Z,43.20
2018-08-17T17:04:07.194Z,43.00
2018-08-17T17:06:35.820Z,43.00
2018-08-17T17:09:08.019Z,43.20
2018-08-17T17:11:41.074Z,43.70
2018-08-17T17:14:10.552Z,43.10
2018-08-17T17:16:43.218Z,43.30
2018-08-17T17:19:15.015Z,43.90
2018-08-17T17:21:45.050Z,43.30
2018-08-17T17:24:25.139Z,43.60
2018-08-17T17:26:53.844Z,43.70
2018-08-17T17:29:23.286Z,45.00
2018-08-17T17:31:51.931Z,44.10
2018-08-17T17:34:20.483Z,45.50
2018-08-17T17:36:50.565Z,43.90
2018-08-17T17:39:19.748Z,44.40
2018-08-17T17:41:48.253Z,44.10
2018-08-17T17:44:16.667Z,44.60
2018-08-17T17:46:46.713Z,44.80
2018-08-17T17:49:16.983Z,45.40
2018-08-17T17:51:45.367Z,44.70
2018-08-17T17:54:24.696Z,44.90
2018-08-17T17:57:10.031Z,45.90
2018-08-17T17:59:44.719Z,45.50
2018-08-17T18:02:13.924Z,44.60
2018-08-17T18:04:43.132Z,45.00
2018-08-17T18:07:11.511Z,45.70
2018-08-17T18:09:40.220Z,46.80
2018-08-17T18:12:09.511Z,45.20
2018-08-17T18:14:38.104Z,45.40
2018-08-17T18:17:06.497Z,46.30
2018-08-17T18:19:34.894Z,45.60
2018-08-17T18:22:03.576Z,46.00
2018-08-17T18:24:32.097Z,46.40
2018-08-17T18:27:00.717Z,46.60
2018-08-17T18:29:29.115Z,48.50
2018-08-17T18:31:57.531Z,46.80
2018-08-17T18:34:26.060Z,47.30
2018-08-17T18:36:54.505Z,47.30
2018-08-17T18:39:25.523Z,47.50
2018-08-17T18:41:54.034Z,48.20
2018-08-17T18:44:22.465Z,48.20
2018-08-17T18:46:50.921Z,48.40
2018-08-17T18:49:19.334Z,48.20
2018-08-17T18:51:47.955Z,49.10
2018-08-17T18:54:16.410Z,49.80
2018-08-17T18:56:45.079Z,49.40
2018-08-17T18:59:13.677Z,49.90
2018-08-17T19:01:42.135Z,49.60
2018-08-17T19:04:10.563Z,51.80
2018-08-17T19:06:38.999Z,50.00
2018-08-17T19:09:08.520Z,50.60
2018-08-17T19:11:37.096Z,50.70
2018-08-17T19:14:05.520Z,51.00
2018-08-17T19:16:33.954Z,52.00
2018-08-17T19:19:02.448Z,50.90
2018-08-17T19:21:30.918Z,50.70
2018-08-17T19:23:59.481Z,51.60
2018-08-17T19:26:27.894Z,52.50
2018-08-17T19:28:56.280Z,51.50
2018-08-17T19:31:24.771Z,52.00
2018-08-17T19:33:53.306Z,53.20
2018-08-17T19:36:21.742Z,52.90
2018-08-17T19:38:50.292Z,52.60
2018-08-17T19:41:18.924Z,53.20
2018-08-17T19:43:47.436Z,53.60
2018-08-17T19:46:16.120Z,52.80
2018-08-17T19:48:44.759Z,53.20
2018-08-17T19:51:17.190Z,53.60
2018-08-17T19:53:45.982Z,53.60
2018-08-17T19:56:15.148Z,53.80
2018-08-17T19:58:43.878Z,53.80
2018-08-17T20:01:12.270Z,54.00
2018-08-17T20:03:40.817Z,55.20
2018-08-17T20:06:09.401Z,54.90
2018-08-17T20:08:37.886Z,55.30
2018-08-17T20:11:06.293Z,55.10
2018-08-17T20:13:34.780Z,55.60
2018-08-17T20:16:08.775Z,55.80
2018-08-17T20:18:37.190Z,55.90
2018-08-17T20:21:05.926Z,56.30
2018-08-17T20:23:34.426Z,56.70
2018-08-17T20:26:03.019Z,56.00
2018-08-17T20:28:31.361Z,55.90
2018-08-17T20:30:59.721Z,55.80
2018-08-17T20:33:28.158Z,55.80
2018-08-17T20:35:57.140Z,56.90
2018-08-17T20:38:25.542Z,56.50
2018-08-17T20:40:57.938Z,56.80
2018-08-17T20:43:26.770Z,56.50
2018-08-17T20:45:55.350Z,56.50
2018-08-17T20:48:23.858Z,56.80
2018-08-17T20:50:52.243Z,57.20
2018-08-17T20:53:21.002Z,57.20
2018-08-17T20:55:49.417Z,57.40
2018-08-17T20:58:17.987Z,57.80
2018-08-17T21:00:46.387Z,60.10
2018-08-17T21:03:15.560Z,59.20
2018-08-17T21:05:44.543Z,62.30
2018-08-17T21:08:13.529Z,60.30
2018-08-17T21:10:42.630Z,61.80
2018-08-17T21:13:11.725Z,61.80
2018-08-17T21:15:40.772Z,62.30
2018-08-17T21:18:09.623Z,62.70
2018-08-17T21:20:38.663Z,63.30
2018-08-17T21:23:07.492Z,64.10
2018-08-17T21:25:36.179Z,64.80
2018-08-17T21:28:04.869Z,65.40
2018-08-17T21:30:33.381Z,66.20
2018-08-17T21:33:02.038Z,67.00
2018-08-17T21:35:30.548Z,68.40
2018-08-17T21:37:59.204Z,70.00
2018-08-17T21:40:30.674Z,71.30
2018-08-17T21:43:01.589Z,71.80
2018-08-17T21:45:30.506Z,72.60
2018-08-17T21:47:59.177Z,73.20
2018-08-17T21:50:27.696Z,73.20
2018-08-17T21:52:56.440Z,74.00
2018-08-17T21:55:25.078Z,74.10
2018-08-17T21:57:53.559Z,74.50
2018-08-17T22:00:29.064Z,75.40
2018-08-17T22:02:57.690Z,76.30
2018-08-17T22:05:34.422Z,77.40
2018-08-17T22:08:03.124Z,82.00
2018-08-17T22:10:31.914Z,85.60
2018-08-17T22:13:00.497Z,86.80
2018-08-17T22:15:30.412Z,88.40
2018-08-17T22:17:59.182Z,88.20
2018-08-17T22:20:27.872Z,89.40
2018-08-17T22:22:56.570Z,90.40
2018-08-17T22:25:25.052Z,90.40
2018-08-17T22:27:53.636Z,90.70
2018-08-17T22:30:24.760Z,90.90
2018-08-17T22:32:53.396Z,91.40
2018-08-17T22:35:22.050Z,91.30
2018-08-17T22:37:50.615Z,91.60
2018-08-17T22:40:19.047Z,92.00
2018-08-17T22:42:48.086Z,93.30
2018-08-17T22:45:17.731Z,93.20
2018-08-17T22:47:46.204Z,94.20
2018-08-17T22:50:14.874Z,95.70
2018-08-17T22:52:43.550Z,95.00
2018-08-17T22:55:12.004Z,96.10
2018-08-17T22:57:40.443Z,96.50
2018-08-17T23:00:16.614Z,98.30
2018-08-17T23:02:45.865Z,99.90
2018-08-17T23:05:16.804Z,99.90
2018-08-17T23:07:45.331Z,99.90
2018-08-17T23:10:15.851Z,99.40
2018-08-17T23:12:45.369Z,99.90
2018-08-17T23:15:14.067Z,99.70
2018-08-17T23:17:46.014Z,99.30
2018-08-17T23:20:15.099Z,98.50
2018-08-17T23:22:50.058Z,99.00
2018-08-17T23:25:18.761Z,99.20
2018-08-17T23:27:48.026Z,99.40
2018-08-17T23:30:16.426Z,99.90
2018-08-17T23:32:45.470Z,99.80
2018-08-17T23:35:13.873Z,99.90
2018-08-17T23:37:42.299Z,99.70
2018-08-17T23:40:11.164Z,99.90
2018-08-17T23:42:39.651Z,99.90
2018-08-17T23:45:10.906Z,99.90
2018-08-17T23:47:39.783Z,99.90
2018-08-17T23:50:09.559Z,99.90
2018-08-17T23:52:38.010Z,99.90
2018-08-17T23:55:07.380Z,99.90
2018-08-17T23:57:36.132Z,99.90
